sensor_id;sensor_type;location;lat;lon;timestamp;P1;durP1;ratioP1;P2;durP2;ratioP2
11008;SDS011;5557;51.670;7.788;2022-11-12T00:00:56;53.10;;;30.90;;
11008;SDS011;5557;51.670;7.788;2022-11-12T00:03:24;42.63;;;30.97;;
11008;SDS011;5557;51.670;7.788;2022-11-12T00:05:52;41.63;;;30.90;;
11008;SDS011;5557;51.670;7.788;2022-11-12T00:08:19;44.23;;;30.77;;
11008;SDS011;5557;51.670;7.788;2022-11-12T00:10:47;41.53;;;29.23;;
11008;SDS011;5557;51.670;7.788;2022-11-12T00:13:14;39.80;;;29.83;;
11008;SDS011;5557;51.670;7.788;2022-11-12T00:15:41;41.60;;;28.90;;
11008;SDS011;5557;51.670;7.788;2022-11-12T00:18:08;47.60;;;29.27;;
11008;SDS011;5557;51.670;7.788;2022-11-12T00:20:35;42.00;;;28.83;;
11008;SDS011;5557;51.670;7.788;2022-11-12T00:23:02;39.90;;;28.50;;
11008;SDS011;5557;51.670;7.788;2022-11-12T00:25:29;40.50;;;30.20;;
11008;SDS011;5557;51.670;7.788;2022-11-12T00:28:00;45.37;;;30.03;;
11008;SDS011;5557;51.670;7.788;2022-11-12T00:30:32;38.07;;;30.43;;
11008;SDS011;5557;51.670;7.788;2022-11-12T00:33:02;41.73;;;30.50;;
11008;SDS011;5557;51.670;7.788;2022-11-12T00:35:30;46.63;;;31.70;;
11008;SDS011;5557;51.670;7.788;2022-11-12T00:37:58;43.97;;;30.30;;
11008;SDS011;5557;51.670;7.788;2022-11-12T00:40:26;39.10;;;29.80;;
11008;SDS011;5557;51.670;7.788;2022-11-12T00:42:53;44.10;;;30.03;;
11008;SDS011;5557;51.670;7.788;2022-11-12T00:45:20;39.57;;;28.73;;
11008;SDS011;5557;51.670;7.788;2022-11-12T00:47:47;43.60;;;29.47;;
11008;SDS011;5557;51.670;7.788;2022-11-12T00:50:15;40.07;;;30.60;;
11008;SDS011;5557;51.670;7.788;2022-11-12T00:52:42;42.80;;;30.17;;
11008;SDS011;5557;51.670;7.788;2022-11-12T00:55:09;44.40;;;29.83;;
11008;SDS011;5557;51.670;7.788;2022-11-12T00:57:36;42.83;;;30.27;;
11008;SDS011;5557;51.670;7.788;2022-11-12T01:00:04;37.23;;;28.70;;
11008;SDS011;5557;51.670;7.788;2022-11-12T01:02:32;44.60;;;30.13;;
11008;SDS011;5557;51.670;7.788;2022-11-12T01:05:09;40.83;;;30.67;;
11008;SDS011;5557;51.670;7.788;2022-11-12T01:07:36;43.20;;;30.67;;
11008;SDS011;5557;51.670;7.788;2022-11-12T01:10:03;38.43;;;26.50;;
11008;SDS011;5557;51.670;7.788;2022-11-12T01:12:31;45.67;;;29.80;;
11008;SDS011;5557;51.670;7.788;2022-11-12T01:14:58;46.93;;;30.60;;
11008;SDS011;5557;51.670;7.788;2022-11-12T01:17:25;39.13;;;30.07;;
11008;SDS011;5557;51.670;7.788;2022-11-12T01:19:52;39.13;;;29.77;;
11008;SDS011;5557;51.670;7.788;2022-11-12T01:22:21;31.80;;;26.00;;
11008;SDS011;5557;51.670;7.788;2022-11-12T01:24:49;34.33;;;27.43;;
11008;SDS011;5557;51.670;7.788;2022-11-12T01:27:16;35.77;;;27.03;;
11008;SDS011;5557;51.670;7.788;2022-11-12T01:29:43;39.03;;;28.63;;
11008;SDS011;5557;51.670;7.788;2022-11-12T01:32:10;39.60;;;26.83;;
11008;SDS011;5557;51.670;7.788;2022-11-12T01:34:37;35.90;;;26.07;;
11008;SDS011;5557;51.670;7.788;2022-11-12T01:37:04;38.03;;;27.07;;
11008;SDS011;5557;51.670;7.788;2022-11-12T01:39:31;31.83;;;23.33;;
11008;SDS011;5557;51.670;7.788;2022-11-12T01:41:58;33.60;;;21.50;;
11008;SDS011;5557;51.670;7.788;2022-11-12T01:44:27;23.33;;;20.83;;
11008;SDS011;5557;51.670;7.788;2022-11-12T01:52:44;22.30;;;17.80;;
11008;SDS011;5557;51.670;7.788;2022-11-12T01:55:19;29.87;;;20.27;;
11008;SDS011;5557;51.670;7.788;2022-11-12T01:57:53;22.80;;;19.83;;
11008;SDS011;5557;51.670;7.788;2022-11-12T02:00:24;22.93;;;18.73;;
11008;SDS011;5557;51.670;7.788;2022-11-12T02:02:52;24.00;;;19.13;;
11008;SDS011;5557;51.670;7.788;2022-11-12T02:05:24;22.67;;;18.07;;
11008;SDS011;5557;51.670;7.788;2022-11-12T02:07:53;25.33;;;20.63;;
11008;SDS011;5557;51.670;7.788;2022-11-12T02:10:22;21.90;;;19.60;;
11008;SDS011;5557;51.670;7.788;2022-11-12T02:12:50;23.20;;;19.40;;
11008;SDS011;5557;51.670;7.788;2022-11-12T02:15:38;22.97;;;18.83;;
11008;SDS011;5557;51.670;7.788;2022-11-12T02:18:06;21.17;;;17.07;;
11008;SDS011;5557;51.670;7.788;2022-11-12T02:20:34;25.57;;;17.97;;
11008;SDS011;5557;51.670;7.788;2022-11-12T02:23:03;25.50;;;19.40;;
11008;SDS011;5557;51.670;7.788;2022-11-12T02:25:31;19.40;;;17.50;;
11008;SDS011;5557;51.670;7.788;2022-11-12T02:27:58;22.77;;;18.40;;
11008;SDS011;5557;51.670;7.788;2022-11-12T02:30:31;22.50;;;18.83;;
11008;SDS011;5557;51.670;7.788;2022-11-12T02:33:01;21.93;;;19.40;;
11008;SDS011;5557;51.670;7.788;2022-11-12T02:35:29;21.97;;;19.60;;
11008;SDS011;5557;51.670;7.788;2022-11-12T02:37:57;20.77;;;18.43;;
11008;SDS011;5557;51.670;7.788;2022-11-12T02:40:24;20.20;;;17.97;;
11008;SDS011;5557;51.670;7.788;2022-11-12T02:42:51;20.53;;;17.80;;
11008;SDS011;5557;51.670;7.788;2022-11-12T02:45:18;21.83;;;17.27;;
11008;SDS011;5557;51.670;7.788;2022-11-12T02:47:46;24.43;;;17.00;;
11008;SDS011;5557;51.670;7.788;2022-11-12T02:50:13;23.27;;;18.70;;
11008;SDS011;5557;51.670;7.788;2022-11-12T02:52:41;23.20;;;17.80;;
11008;SDS011;5557;51.670;7.788;2022-11-12T02:55:08;21.53;;;18.17;;
11008;SDS011;5557;51.670;7.788;2022-11-12T02:57:36;24.03;;;18.63;;
11008;SDS011;5557;51.670;7.788;2022-11-12T03:00:06;20.83;;;18.63;;
11008;SDS011;5557;51.670;7.788;2022-11-12T03:02:36;20.03;;;17.60;;
11008;SDS011;5557;51.670;7.788;2022-11-12T03:05:11;20.63;;;18.43;;
11008;SDS011;5557;51.670;7.788;2022-11-12T03:07:40;25.60;;;20.53;;
11008;SDS011;5557;51.670;7.788;2022-11-12T03:10:07;18.67;;;16.87;;
11008;SDS011;5557;51.670;7.788;2022-11-12T03:12:35;19.20;;;17.13;;
11008;SDS011;5557;51.670;7.788;2022-11-12T03:15:01;20.00;;;16.87;;
11008;SDS011;5557;51.670;7.788;2022-11-12T03:17:29;17.43;;;15.83;;
11008;SDS011;5557;51.670;7.788;2022-11-12T03:19:56;18.97;;;16.80;;
11008;SDS011;5557;51.670;7.788;2022-11-12T03:22:23;17.17;;;15.47;;
11008;SDS011;5557;51.670;7.788;2022-11-12T03:24:49;17.17;;;15.47;;
11008;SDS011;5557;51.670;7.788;2022-11-12T03:27:16;17.60;;;15.90;;
11008;SDS011;5557;51.670;7.788;2022-11-12T03:29:43;16.30;;;14.70;;
11008;SDS011;5557;51.670;7.788;2022-11-12T03:32:10;15.80;;;14.33;;
11008;SDS011;5557;51.670;7.788;2022-11-12T03:34:37;16.87;;;15.07;;
11008;SDS011;5557;51.670;7.788;2022-11-12T03:37:04;17.23;;;15.40;;
11008;SDS011;5557;51.670;7.788;2022-11-12T03:39:35;16.53;;;14.93;;
11008;SDS011;5557;51.670;7.788;2022-11-12T03:42:02;16.63;;;14.93;;
11008;SDS011;5557;51.670;7.788;2022-11-12T03:44:29;15.83;;;14.20;;
11008;SDS011;5557;51.670;7.788;2022-11-12T03:46:56;15.23;;;13.93;;
11008;SDS011;5557;51.670;7.788;2022-11-12T03:49:23;15.60;;;14.20;;
11008;SDS011;5557;51.670;7.788;2022-11-12T03:51:50;15.60;;;14.00;;
11008;SDS011;5557;51.670;7.788;2022-11-12T03:54:17;15.23;;;13.60;;
11008;SDS011;5557;51.670;7.788;2022-11-12T03:56:47;14.53;;;13.13;;
11008;SDS011;5557;51.670;7.788;2022-11-12T03:59:14;16.37;;;14.83;;
11008;SDS011;5557;51.670;7.788;2022-11-12T04:01:41;15.10;;;13.57;;
11008;SDS011;5557;51.670;7.788;2022-11-12T04:04:09;14.17;;;12.80;;
11008;SDS011;5557;51.670;7.788;2022-11-12T04:06:36;13.93;;;12.50;;
11008;SDS011;5557;51.670;7.788;2022-11-12T04:09:21;14.73;;;13.27;;
11008;SDS011;5557;51.670;7.788;2022-11-12T04:11:48;15.70;;;13.83;;
11008;SDS011;5557;51.670;7.788;2022-11-12T04:14:15;16.13;;;14.57;;
11008;SDS011;5557;51.670;7.788;2022-11-12T04:16:42;18.00;;;15.50;;
11008;SDS011;5557;51.670;7.788;2022-11-12T04:19:28;18.80;;;16.80;;
11008;SDS011;5557;51.670;7.788;2022-11-12T04:22:13;17.23;;;15.43;;
11008;SDS011;5557;51.670;7.788;2022-11-12T04:24:40;14.53;;;13.20;;
11008;SDS011;5557;51.670;7.788;2022-11-12T04:27:28;15.40;;;12.47;;
11008;SDS011;5557;51.670;7.788;2022-11-12T04:29:58;14.17;;;12.97;;
11008;SDS011;5557;51.670;7.788;2022-11-12T04:32:50;14.33;;;12.90;;
11008;SDS011;5557;51.670;7.788;2022-11-12T04:35:20;16.10;;;14.03;;
11008;SDS011;5557;51.670;7.788;2022-11-12T04:37:51;14.77;;;13.37;;
11008;SDS011;5557;51.670;7.788;2022-11-12T04:40:19;15.60;;;14.00;;
11008;SDS011;5557;51.670;7.788;2022-11-12T04:43:10;14.30;;;13.00;;
11008;SDS011;5557;51.670;7.788;2022-11-12T04:45:56;15.57;;;14.17;;
11008;SDS011;5557;51.670;7.788;2022-11-12T04:48:28;14.77;;;12.43;;
11008;SDS011;5557;51.670;7.788;2022-11-12T04:50:56;14.97;;;13.70;;
11008;SDS011;5557;51.670;7.788;2022-11-12T04:53:26;17.73;;;16.00;;
11008;SDS011;5557;51.670;7.788;2022-11-12T04:55:54;18.10;;;16.27;;
11008;SDS011;5557;51.670;7.788;2022-11-12T04:58:22;29.40;;;26.40;;
11008;SDS011;5557;51.670;7.788;2022-11-12T05:00:50;40.43;;;36.13;;
11008;SDS011;5557;51.670;7.788;2022-11-12T05:03:17;39.10;;;33.27;;
11008;SDS011;5557;51.670;7.788;2022-11-12T05:05:44;32.00;;;26.27;;
11008;SDS011;5557;51.670;7.788;2022-11-12T05:08:11;21.90;;;19.87;;
11008;SDS011;5557;51.670;7.788;2022-11-12T05:10:38;19.57;;;17.67;;
11008;SDS011;5557;51.670;7.788;2022-11-12T05:13:05;21.50;;;16.73;;
11008;SDS011;5557;51.670;7.788;2022-11-12T05:15:32;18.40;;;15.97;;
11008;SDS011;5557;51.670;7.788;2022-11-12T05:17:59;19.63;;;17.60;;
11008;SDS011;5557;51.670;7.788;2022-11-12T05:20:27;18.37;;;16.47;;
11008;SDS011;5557;51.670;7.788;2022-11-12T05:22:57;16.57;;;14.97;;
11008;SDS011;5557;51.670;7.788;2022-11-12T05:25:33;17.20;;;15.50;;
11008;SDS011;5557;51.670;7.788;2022-11-12T05:28:01;17.70;;;15.40;;
11008;SDS011;5557;51.670;7.788;2022-11-12T05:30:28;17.43;;;15.63;;
11008;SDS011;5557;51.670;7.788;2022-11-12T05:32:56;17.77;;;15.90;;
11008;SDS011;5557;51.670;7.788;2022-11-12T05:35:23;19.20;;;17.30;;
11008;SDS011;5557;51.670;7.788;2022-11-12T05:37:50;17.93;;;15.70;;
11008;SDS011;5557;51.670;7.788;2022-11-12T05:40:17;18.90;;;16.90;;
11008;SDS011;5557;51.670;7.788;2022-11-12T05:42:44;20.10;;;16.30;;
11008;SDS011;5557;51.670;7.788;2022-11-12T05:45:11;18.77;;;17.00;;
11008;SDS011;5557;51.670;7.788;2022-11-12T05:47:38;20.03;;;18.13;;
11008;SDS011;5557;51.670;7.788;2022-11-12T05:50:05;21.80;;;19.73;;
11008;SDS011;5557;51.670;7.788;2022-11-12T05:52:33;22.33;;;19.87;;
11008;SDS011;5557;51.670;7.788;2022-11-12T05:55:00;19.90;;;17.90;;
11008;SDS011;5557;51.670;7.788;2022-11-12T05:57:27;17.73;;;16.07;;
11008;SDS011;5557;51.670;7.788;2022-11-12T05:59:54;20.93;;;15.97;;
11008;SDS011;5557;51.670;7.788;2022-11-12T06:02:20;18.80;;;16.93;;
11008;SDS011;5557;51.670;7.788;2022-11-12T06:04:48;17.47;;;15.67;;
11008;SDS011;5557;51.670;7.788;2022-11-12T06:07:15;18.33;;;16.33;;
11008;SDS011;5557;51.670;7.788;2022-11-12T06:09:42;18.00;;;16.30;;
11008;SDS011;5557;51.670;7.788;2022-11-12T06:12:08;18.60;;;16.70;;
11008;SDS011;5557;51.670;7.788;2022-11-12T06:14:36;19.70;;;15.43;;
11008;SDS011;5557;51.670;7.788;2022-11-12T06:17:03;18.10;;;16.20;;
11008;SDS011;5557;51.670;7.788;2022-11-12T06:19:30;20.97;;;18.93;;
11008;SDS011;5557;51.670;7.788;2022-11-12T06:21:56;38.27;;;33.70;;
11008;SDS011;5557;51.670;7.788;2022-11-12T06:24:24;44.00;;;39.37;;
11008;SDS011;5557;51.670;7.788;2022-11-12T06:26:55;39.43;;;34.97;;
11008;SDS011;5557;51.670;7.788;2022-11-12T06:29:22;31.23;;;26.47;;
11008;SDS011;5557;51.670;7.788;2022-11-12T06:31:49;29.50;;;24.60;;
11008;SDS011;5557;51.670;7.788;2022-11-12T06:34:17;25.63;;;21.43;;
11008;SDS011;5557;51.670;7.788;2022-11-12T06:36:43;26.07;;;22.63;;
11008;SDS011;5557;51.670;7.788;2022-11-12T06:39:13;22.30;;;20.10;;
11008;SDS011;5557;51.670;7.788;2022-11-12T06:41:40;19.20;;;17.30;;
11008;SDS011;5557;51.670;7.788;2022-11-12T06:44:07;18.73;;;16.83;;
11008;SDS011;5557;51.670;7.788;2022-11-12T06:46:34;18.47;;;16.53;;
11008;SDS011;5557;51.670;7.788;2022-11-12T06:49:02;32.83;;;29.13;;
11008;SDS011;5557;51.670;7.788;2022-11-12T06:51:28;43.73;;;39.13;;
11008;SDS011;5557;51.670;7.788;2022-11-12T06:53:55;37.73;;;33.47;;
11008;SDS011;5557;51.670;7.788;2022-11-12T06:56:22;33.43;;;29.90;;
11008;SDS011;5557;51.670;7.788;2022-11-12T06:58:53;25.10;;;22.60;;
11008;SDS011;5557;51.670;7.788;2022-11-12T07:01:20;21.07;;;19.00;;
11008;SDS011;5557;51.670;7.788;2022-11-12T07:03:52;21.90;;;18.60;;
11008;SDS011;5557;51.670;7.788;2022-11-12T07:06:19;20.90;;;18.67;;
11008;SDS011;5557;51.670;7.788;2022-11-12T07:08:46;29.70;;;25.30;;
11008;SDS011;5557;51.670;7.788;2022-11-12T07:11:15;28.53;;;25.57;;
11008;SDS011;5557;51.670;7.788;2022-11-12T07:13:43;22.07;;;19.50;;
11008;SDS011;5557;51.670;7.788;2022-11-12T07:16:11;19.50;;;17.20;;
11008;SDS011;5557;51.670;7.788;2022-11-12T07:18:47;23.30;;;18.07;;
11008;SDS011;5557;51.670;7.788;2022-11-12T07:21:16;17.90;;;16.20;;
11008;SDS011;5557;51.670;7.788;2022-11-12T07:23:45;17.37;;;15.47;;
11008;SDS011;5557;51.670;7.788;2022-11-12T07:26:22;16.77;;;15.30;;
11008;SDS011;5557;51.670;7.788;2022-11-12T07:28:51;16.70;;;14.90;;
11008;SDS011;5557;51.670;7.788;2022-11-12T07:31:19;13.10;;;12.00;;
11008;SDS011;5557;51.670;7.788;2022-11-12T07:33:46;13.37;;;12.07;;
11008;SDS011;5557;51.670;7.788;2022-11-12T07:36:17;13.57;;;12.37;;
11008;SDS011;5557;51.670;7.788;2022-11-12T07:38:45;13.87;;;11.50;;
11008;SDS011;5557;51.670;7.788;2022-11-12T07:41:13;13.50;;;12.40;;
11008;SDS011;5557;51.670;7.788;2022-11-12T07:43:46;20.80;;;18.33;;
11008;SDS011;5557;51.670;7.788;2022-11-12T07:46:15;35.13;;;26.70;;
11008;SDS011;5557;51.670;7.788;2022-11-12T07:48:42;22.67;;;20.40;;
11008;SDS011;5557;51.670;7.788;2022-11-12T07:51:12;18.67;;;16.63;;
11008;SDS011;5557;51.670;7.788;2022-11-12T07:53:39;16.50;;;14.80;;
11008;SDS011;5557;51.670;7.788;2022-11-12T07:56:11;24.97;;;14.60;;
11008;SDS011;5557;51.670;7.788;2022-11-12T07:58:39;22.13;;;14.30;;
11008;SDS011;5557;51.670;7.788;2022-11-12T08:01:11;21.70;;;12.00;;
11008;SDS011;5557;51.670;7.788;2022-11-12T08:03:58;15.20;;;10.63;;
11008;SDS011;5557;51.670;7.788;2022-11-12T08:06:26;11.60;;;9.77;;
11008;SDS011;5557;51.670;7.788;2022-11-12T08:08:54;10.87;;;8.30;;
11008;SDS011;5557;51.670;7.788;2022-11-12T08:11:22;11.00;;;8.70;;
11008;SDS011;5557;51.670;7.788;2022-11-12T08:13:50;9.00;;;7.80;;
11008;SDS011;5557;51.670;7.788;2022-11-12T08:16:17;10.87;;;7.70;;
11008;SDS011;5557;51.670;7.788;2022-11-12T08:18:44;10.40;;;8.10;;
11008;SDS011;5557;51.670;7.788;2022-11-12T08:21:13;8.30;;;7.13;;
11008;SDS011;5557;51.670;7.788;2022-11-12T08:23:41;10.83;;;7.73;;
11008;SDS011;5557;51.670;7.788;2022-11-12T08:26:12;8.80;;;7.30;;
11008;SDS011;5557;51.670;7.788;2022-11-12T08:28:41;14.40;;;8.27;;
11008;SDS011;5557;51.670;7.788;2022-11-12T08:31:15;9.93;;;8.60;;
11008;SDS011;5557;51.670;7.788;2022-11-12T08:33:44;10.23;;;9.17;;
11008;SDS011;5557;51.670;7.788;2022-11-12T08:36:12;8.40;;;7.53;;
11008;SDS011;5557;51.670;7.788;2022-11-12T08:38:40;15.43;;;9.07;;
11008;SDS011;5557;51.670;7.788;2022-11-12T08:41:12;8.73;;;7.33;;
11008;SDS011;5557;51.670;7.788;2022-11-12T08:43:45;11.97;;;10.63;;
11008;SDS011;5557;51.670;7.788;2022-11-12T08:46:12;7.43;;;6.70;;
11008;SDS011;5557;51.670;7.788;2022-11-12T08:48:39;9.60;;;7.00;;
11008;SDS011;5557;51.670;7.788;2022-11-12T08:51:06;6.90;;;6.40;;
11008;SDS011;5557;51.670;7.788;2022-11-12T08:53:33;6.67;;;5.83;;
11008;SDS011;5557;51.670;7.788;2022-11-12T08:56:00;5.70;;;5.10;;
11008;SDS011;5557;51.670;7.788;2022-11-12T08:58:27;6.70;;;5.60;;
11008;SDS011;5557;51.670;7.788;2022-11-12T09:00:55;4.90;;;4.50;;
11008;SDS011;5557;51.670;7.788;2022-11-12T09:03:24;5.87;;;5.47;;
11008;SDS011;5557;51.670;7.788;2022-11-12T09:05:51;6.83;;;5.50;;
11008;SDS011;5557;51.670;7.788;2022-11-12T09:08:20;4.50;;;4.20;;
11008;SDS011;5557;51.670;7.788;2022-11-12T09:10:49;8.10;;;4.03;;
11008;SDS011;5557;51.670;7.788;2022-11-12T09:13:16;5.73;;;5.13;;
11008;SDS011;5557;51.670;7.788;2022-11-12T09:15:47;8.40;;;4.23;;
11008;SDS011;5557;51.670;7.788;2022-11-12T09:18:15;15.30;;;5.20;;
11008;SDS011;5557;51.670;7.788;2022-11-12T09:20:44;10.00;;;5.40;;
11008;SDS011;5557;51.670;7.788;2022-11-12T09:23:12;5.47;;;4.97;;
11008;SDS011;5557;51.670;7.788;2022-11-12T09:25:40;5.70;;;5.20;;
11008;SDS011;5557;51.670;7.788;2022-11-12T09:28:17;5.20;;;4.90;;
11008;SDS011;5557;51.670;7.788;2022-11-12T09:30:46;5.57;;;4.73;;
11008;SDS011;5557;51.670;7.788;2022-11-12T09:33:15;5.17;;;4.70;;
11008;SDS011;5557;51.670;7.788;2022-11-12T09:35:44;5.30;;;4.90;;
11008;SDS011;5557;51.670;7.788;2022-11-12T09:38:11;5.50;;;4.60;;
11008;SDS011;5557;51.670;7.788;2022-11-12T09:41:27;8.07;;;5.37;;
11008;SDS011;5557;51.670;7.788;2022-11-12T09:44:00;5.83;;;4.60;;
11008;SDS011;5557;51.670;7.788;2022-11-12T09:49:21;3.57;;;3.37;;
11008;SDS011;5557;51.670;7.788;2022-11-12T09:52:19;4.43;;;4.10;;
11008;SDS011;5557;51.670;7.788;2022-11-12T09:55:03;4.83;;;4.43;;
11008;SDS011;5557;51.670;7.788;2022-11-12T09:57:37;7.30;;;6.70;;
11008;SDS011;5557;51.670;7.788;2022-11-12T10:00:38;6.20;;;5.70;;
11008;SDS011;5557;51.670;7.788;2022-11-12T10:05:57;5.77;;;4.67;;
11008;SDS011;5557;51.670;7.788;2022-11-12T10:11:51;8.23;;;7.30;;
11008;SDS011;5557;51.670;7.788;2022-11-12T10:19:12;27.70;;;4.20;;
11008;SDS011;5557;51.670;7.788;2022-11-12T10:21:33;10.10;;;4.60;;
11008;SDS011;5557;51.670;7.788;2022-11-12T10:24:09;11.07;;;5.07;;
11008;SDS011;5557;51.670;7.788;2022-11-12T10:26:37;5.93;;;5.43;;
11008;SDS011;5557;51.670;7.788;2022-11-12T10:29:12;4.77;;;4.27;;
11008;SDS011;5557;51.670;7.788;2022-11-12T10:31:53;5.23;;;4.27;;
11008;SDS011;5557;51.670;7.788;2022-11-12T10:34:21;4.00;;;3.60;;
11008;SDS011;5557;51.670;7.788;2022-11-12T10:36:56;5.03;;;4.60;;
11008;SDS011;5557;51.670;7.788;2022-11-12T10:39:31;8.63;;;4.40;;
11008;SDS011;5557;51.670;7.788;2022-11-12T10:42:14;5.73;;;4.70;;
11008;SDS011;5557;51.670;7.788;2022-11-12T10:44:42;9.43;;;4.87;;
11008;SDS011;5557;51.670;7.788;2022-11-12T10:47:17;10.07;;;4.90;;
11008;SDS011;5557;51.670;7.788;2022-11-12T10:50:02;5.20;;;4.70;;
11008;SDS011;5557;51.670;7.788;2022-11-12T10:52:53;6.13;;;4.87;;
11008;SDS011;5557;51.670;7.788;2022-11-12T10:55:26;8.37;;;4.83;;
11008;SDS011;5557;51.670;7.788;2022-11-12T10:58:13;5.77;;;4.87;;
11008;SDS011;5557;51.670;7.788;2022-11-12T11:00:54;10.33;;;5.77;;
11008;SDS011;5557;51.670;7.788;2022-11-12T11:03:31;7.00;;;5.13;;
11008;SDS011;5557;51.670;7.788;2022-11-12T11:08:47;10.57;;;5.93;;
11008;SDS011;5557;51.670;7.788;2022-11-12T11:11:20;8.73;;;6.10;;
11008;SDS011;5557;51.670;7.788;2022-11-12T11:13:53;10.80;;;5.33;;
11008;SDS011;5557;51.670;7.788;2022-11-12T11:16:27;12.83;;;5.40;;
11008;SDS011;5557;51.670;7.788;2022-11-12T11:18:56;8.93;;;5.40;;
11008;SDS011;5557;51.670;7.788;2022-11-12T11:24:36;8.90;;;5.10;;
11008;SDS011;5557;51.670;7.788;2022-11-12T11:27:21;5.03;;;4.40;;
11008;SDS011;5557;51.670;7.788;2022-11-12T11:30:18;7.50;;;5.20;;
11008;SDS011;5557;51.670;7.788;2022-11-12T11:33:01;5.63;;;4.63;;
11008;SDS011;5557;51.670;7.788;2022-11-12T11:43:04;6.47;;;4.40;;
11008;SDS011;5557;51.670;7.788;2022-11-12T11:45:54;6.27;;;5.30;;
11008;SDS011;5557;51.670;7.788;2022-11-12T11:49:00;4.50;;;4.10;;
11008;SDS011;5557;51.670;7.788;2022-11-12T11:58:19;6.03;;;4.13;;
11008;SDS011;5557;51.670;7.788;2022-11-12T12:00:56;5.13;;;4.43;;
11008;SDS011;5557;51.670;7.788;2022-11-12T12:07:04;4.83;;;4.30;;
11008;SDS011;5557;51.670;7.788;2022-11-12T12:10:21;5.63;;;5.13;;
11008;SDS011;5557;51.670;7.788;2022-11-12T12:16:41;6.73;;;6.10;;
11008;SDS011;5557;51.670;7.788;2022-11-12T12:22:37;6.10;;;3.80;;
11008;SDS011;5557;51.670;7.788;2022-11-12T12:25:25;4.00;;;3.70;;
11008;SDS011;5557;51.670;7.788;2022-11-12T12:28:09;8.57;;;5.83;;
11008;SDS011;5557;51.670;7.788;2022-11-12T12:31:13;3.33;;;3.10;;
11008;SDS011;5557;51.670;7.788;2022-11-12T12:33:52;4.53;;;4.23;;
11008;SDS011;5557;51.670;7.788;2022-11-12T12:36:37;7.33;;;4.17;;
11008;SDS011;5557;51.670;7.788;2022-11-12T12:39:13;7.90;;;4.37;;
11008;SDS011;5557;51.670;7.788;2022-11-12T12:41:52;4.00;;;3.70;;
11008;SDS011;5557;51.670;7.788;2022-11-12T12:44:29;5.73;;;4.70;;
11008;SDS011;5557;51.670;7.788;2022-11-12T12:47:24;5.47;;;5.10;;
11008;SDS011;5557;51.670;7.788;2022-11-12T12:49:55;5.43;;;3.20;;
11008;SDS011;5557;51.670;7.788;2022-11-12T12:52:26;8.70;;;3.40;;
11008;SDS011;5557;51.670;7.788;2022-11-12T12:54:53;4.70;;;4.40;;
11008;SDS011;5557;51.670;7.788;2022-11-12T12:57:42;3.93;;;3.63;;
11008;SDS011;5557;51.670;7.788;2022-11-12T13:00:30;8.00;;;3.00;;
11008;SDS011;5557;51.670;7.788;2022-11-12T13:03:00;3.70;;;3.40;;
11008;SDS011;5557;51.670;7.788;2022-11-12T13:05:32;5.17;;;4.70;;
11008;SDS011;5557;51.670;7.788;2022-11-12T13:08:17;2.97;;;2.77;;
11008;SDS011;5557;51.670;7.788;2022-11-12T13:10:49;3.70;;;3.33;;
11008;SDS011;5557;51.670;7.788;2022-11-12T13:16:06;3.00;;;2.67;;
11008;SDS011;5557;51.670;7.788;2022-11-12T13:21:25;8.77;;;3.37;;
11008;SDS011;5557;51.670;7.788;2022-11-12T13:26:53;5.60;;;3.00;;
11008;SDS011;5557;51.670;7.788;2022-11-12T13:35:40;2.50;;;2.40;;
11008;SDS011;5557;51.670;7.788;2022-11-12T13:43:41;2.53;;;2.43;;
11008;SDS011;5557;51.670;7.788;2022-11-12T13:46:18;2.90;;;2.70;;
11008;SDS011;5557;51.670;7.788;2022-11-12T13:51:45;2.20;;;2.10;;
11008;SDS011;5557;51.670;7.788;2022-11-12T13:54:30;4.60;;;2.00;;
11008;SDS011;5557;51.670;7.788;2022-11-12T14:00:25;18.80;;;3.00;;
11008;SDS011;5557;51.670;7.788;2022-11-12T14:03:00;5.50;;;2.97;;
11008;SDS011;5557;51.670;7.788;2022-11-12T14:05:32;2.77;;;2.57;;
11008;SDS011;5557;51.670;7.788;2022-11-12T14:08:07;9.83;;;3.10;;
11008;SDS011;5557;51.670;7.788;2022-11-12T14:17:46;3.00;;;2.07;;
11008;SDS011;5557;51.670;7.788;2022-11-12T14:20:35;2.20;;;1.70;;
11008;SDS011;5557;51.670;7.788;2022-11-12T14:23:13;2.07;;;1.63;;
11008;SDS011;5557;51.670;7.788;2022-11-12T14:25:50;5.63;;;2.10;;
11008;SDS011;5557;51.670;7.788;2022-11-12T14:28:31;1.70;;;1.60;;
11008;SDS011;5557;51.670;7.788;2022-11-12T14:31:01;2.17;;;2.07;;
11008;SDS011;5557;51.670;7.788;2022-11-12T14:33:29;5.10;;;2.23;;
11008;SDS011;5557;51.670;7.788;2022-11-12T14:36:02;3.10;;;1.97;;
11008;SDS011;5557;51.670;7.788;2022-11-12T14:38:58;2.00;;;1.77;;
11008;SDS011;5557;51.670;7.788;2022-11-12T14:41:32;3.30;;;1.97;;
11008;SDS011;5557;51.670;7.788;2022-11-12T14:44:02;2.20;;;2.10;;
11008;SDS011;5557;51.670;7.788;2022-11-12T14:46:45;2.60;;;2.40;;
11008;SDS011;5557;51.670;7.788;2022-11-12T14:49:26;4.40;;;3.40;;
11008;SDS011;5557;51.670;7.788;2022-11-12T14:52:18;3.77;;;3.47;;
11008;SDS011;5557;51.670;7.788;2022-11-12T14:54:49;3.13;;;2.93;;
11008;SDS011;5557;51.670;7.788;2022-11-12T14:57:24;3.73;;;3.17;;
11008;SDS011;5557;51.670;7.788;2022-11-12T14:59:53;3.50;;;3.20;;
11008;SDS011;5557;51.670;7.788;2022-11-12T15:02:28;5.80;;;3.10;;
11008;SDS011;5557;51.670;7.788;2022-11-12T15:05:18;4.00;;;3.70;;
11008;SDS011;5557;51.670;7.788;2022-11-12T15:07:55;4.67;;;4.27;;
11008;SDS011;5557;51.670;7.788;2022-11-12T15:10:34;4.03;;;3.73;;
11008;SDS011;5557;51.670;7.788;2022-11-12T15:13:17;3.83;;;3.63;;
11008;SDS011;5557;51.670;7.788;2022-11-12T15:15:55;4.27;;;3.90;;
11008;SDS011;5557;51.670;7.788;2022-11-12T15:18:35;6.13;;;4.60;;
11008;SDS011;5557;51.670;7.788;2022-11-12T15:21:23;12.20;;;4.50;;
11008;SDS011;5557;51.670;7.788;2022-11-12T15:26:43;12.27;;;6.87;;
11008;SDS011;5557;51.670;7.788;2022-11-12T15:35:00;7.80;;;6.20;;
11008;SDS011;5557;51.670;7.788;2022-11-12T15:37:27;8.03;;;6.90;;
11008;SDS011;5557;51.670;7.788;2022-11-12T15:40:09;11.60;;;4.97;;
11008;SDS011;5557;51.670;7.788;2022-11-12T15:42:41;7.47;;;6.23;;
11008;SDS011;5557;51.670;7.788;2022-11-12T15:45:09;7.17;;;6.53;;
11008;SDS011;5557;51.670;7.788;2022-11-12T15:47:41;8.43;;;5.53;;
11008;SDS011;5557;51.670;7.788;2022-11-12T15:50:18;7.80;;;6.07;;
11008;SDS011;5557;51.670;7.788;2022-11-12T15:52:48;9.30;;;5.80;;
11008;SDS011;5557;51.670;7.788;2022-11-12T15:55:16;4.83;;;4.33;;
11008;SDS011;5557;51.670;7.788;2022-11-12T15:57:47;5.57;;;4.87;;
11008;SDS011;5557;51.670;7.788;2022-11-12T16:00:18;11.60;;;6.33;;
11008;SDS011;5557;51.670;7.788;2022-11-12T16:03:02;6.63;;;5.87;;
11008;SDS011;5557;51.670;7.788;2022-11-12T16:05:40;11.53;;;7.50;;
11008;SDS011;5557;51.670;7.788;2022-11-12T16:08:08;5.90;;;5.37;;
11008;SDS011;5557;51.670;7.788;2022-11-12T16:10:36;5.63;;;5.13;;
11008;SDS011;5557;51.670;7.788;2022-11-12T16:13:04;5.50;;;5.10;;
11008;SDS011;5557;51.670;7.788;2022-11-12T16:15:32;7.70;;;6.60;;
11008;SDS011;5557;51.670;7.788;2022-11-12T16:17:59;7.80;;;6.20;;
11008;SDS011;5557;51.670;7.788;2022-11-12T16:20:28;7.27;;;6.60;;
11008;SDS011;5557;51.670;7.788;2022-11-12T16:22:57;7.20;;;6.47;;
11008;SDS011;5557;51.670;7.788;2022-11-12T16:25:25;13.53;;;6.30;;
11008;SDS011;5557;51.670;7.788;2022-11-12T16:27:55;9.67;;;6.80;;
11008;SDS011;5557;51.670;7.788;2022-11-12T16:30:27;19.70;;;14.17;;
11008;SDS011;5557;51.670;7.788;2022-11-12T16:32:56;13.30;;;9.10;;
11008;SDS011;5557;51.670;7.788;2022-11-12T16:35:25;18.93;;;12.30;;
11008;SDS011;5557;51.670;7.788;2022-11-12T16:37:53;21.40;;;11.43;;
11008;SDS011;5557;51.670;7.788;2022-11-12T16:40:21;19.67;;;12.27;;
11008;SDS011;5557;51.670;7.788;2022-11-12T16:42:51;25.63;;;13.63;;
11008;SDS011;5557;51.670;7.788;2022-11-12T16:45:19;18.13;;;13.30;;